ADDS METAR Data INFO
IDs: Format: Raw Decoded Include TAF

Data at: 0118 UTC 20 Feb 2018

KSTP 200051Z 03010KT 3SM BR OVC012 M06/M07 A2993 RMK AO2 FZRAE45 SLP145 P0000 I1003 T10561067
KSTP 200050Z 03010KT 3SM BR OVC012 M06/M07 A2993 RMK AO2 FZRAE45 P0000 I1003
KSTP 192353Z 02010KT 2SM -FZRA BR OVC012 M06/M07 A2992 RMK AO2 SLP139 P0000 60004 I1004 I6010 T10561067 11050 21056 53014
KSTP 192253Z 04012G18KT 1 1/4SM -FZRA BR OVC013 M06/M07 A2988 RMK AO2 UPB15E25FZRAB25SNE15 SLP127 P0001 I1004 T10561067
KSTP 192231Z 02009G18KT 1 1/2SM -FZRA BR OVC013 M05/M07 A2988 RMK AO2 UPB15E25FZRAB25SNE15 P0000 I1001 T10501067
KSTP 192153Z 03013G20KT 1 3/4SM -SN BR OVC014 M05/M07 A2987 RMK AO2 UPB2055E2058FZRAB2058E21SNB21 SLP124 P0002 I1002 T10501072
KSTP 192151Z 04012G19KT 1 3/4SM -SN BR OVC014 M05/M07 A2987 RMK AO2 UPB2055E2058FZRAB2058E21SNB21 P0002 I1002
KSTP 192140Z 03011G19KT 2SM -SN BR OVC013 M05/M07 A2988 RMK AO2 UPB2055E2058FZRAB2058E21SNB21 P0002 I1002 T10501072
KSTP 192127Z 02010KT 1 1/4SM -SN BR BKN014 BKN021 OVC026 M05/M07 A2988 RMK AO2 UPB2055E2058FZRAB2058E21SNB21 P0001 I1002 T10501067
KSTP 192115Z 02011KT 1 3/4SM -FZRA BR BKN014 BKN021 OVC027 M05/M07 A2988 RMK AO2 UPB2055E2058FZRAB2058 P0000 I1001 T10501072
KSTP 192104Z 03013G18KT 2 1/2SM -FZRA BR SCT016 OVC027 M05/M07 A2988 RMK AO2 UPB2055E2058FZRAB2058 P0000 I1000 T10501072
KSTP 192053Z AUTO 02009G16KT 2 1/2SM BR FEW016 OVC029 M05/M07 A2988 RMK AO2 SNE36 SLP127 P0000 60001 I1000 I3000 T10501072 55002
KSTP 192043Z 01009G16KT 2SM BR FEW016 OVC029 M05/M07 A2988 RMK AO2 SNE36 P0000 T10501072
KSTP 192019Z 02010G19KT 1 1/2SM -SN BR FEW014 FEW022 OVC032 M05/M07 A2987 RMK AO2 P0000 T10501072
KSTP 191958Z 03015G26KT 1 1/4SM -SN BR SCT022 OVC035 M05/M07 A2987 RMK AO2 P0000 T10501072
KSTP 191953Z 03012G27KT 1SM -SN BR FEW018 BKN025 OVC035 M05/M07 A2987 RMK AO2 PK WND 04027/1947 SLP123 P0000 T10501072 RVRNO
KSTP 191950Z 03016G27KT 1SM -SN FEW018 BKN025 OVC035 M05/M08 A2987 RMK AO2 PK WND 04027/1947 P0000 RVRNO
KSTP 191939Z 03017G26KT 3/4SM -SN BR FEW015 SCT027 OVC035 M05/M07 A2987 RMK AO2 PK WND 03026/1939 P0000 T10501072 RVRNO
KSTP 191853Z 03013G22KT 3/4SM -SN BR BKN017 OVC029 M05/M07 A2989 RMK AO2 SLP129 P0001 T10501072 RVRNO
KSTP 191838Z 03013G23KT 1SM -SN BR BKN018 OVC029 M05/M07 A2990 RMK AO2 P0001 T10501072 RVRNO
KSTP 191753Z 02013G24KT 3/4SM -SN BR VV018 M05/M07 A2991 RMK AO2 SLP138 P0000 60000 I6003 T10501072 11050 21067 56007 RVRNO
KSTP 191653Z 04011G18KT 2SM -SN BR BKN017 OVC025 M05/M07 A2993 RMK AO2 FZRAE30SNB30 SLP141 P0000 I1000 T10501072
KSTP 191635Z 03012G17KT 2 1/2SM -SN BR BKN017 OVC023 M05/M07 A2992 RMK AO2 FZRAE30SNB30 P0000 I1000 T10501072
KSTP 191553Z 01010KT 4SM -FZRA BR OVC015 M06/M08 A2992 RMK AO2 UPE01FZRAB01 SLP139 P0000 I1002 T10561078
KSTP 191507Z 02011KT 4SM -FZRA BR SCT016 BKN027 OVC036 M07/M08 A2994 RMK AO2 UPE01FZRAB01 P0000 I1000 T10671083
KSTP 191453Z 36007KT 3SM UP BR FEW016 BKN027 OVC038 M07/M09 A2994 RMK AO2 UPB20FZRAB28E30SNB30E43 SLP144 P0000 60000 I1001 I3001 T10671089 51017
KSTP 191434Z 36008G19KT 2 1/2SM -SN BR BKN018 OVC025 M07/M09 A2993 RMK AO2 UPB20E28FZRAB28E30SNB30 P0000 I1001 T10671089
KSTP 191353Z COR 01013G20KT 4SM -DZ OVC017 M06/M09 A2993 RMK AO2 SLP144 T10611089
KSTP 191300Z 35010KT 10SM OVC015 M06/M09 A2990 RMK AO2 T10611089
KSTP 191253Z 36010G20KT 10SM OVC014 M06/M08 A2990 RMK AO2 SLP130 T10561083
KSTP 191153Z 35013G18KT 10SM OVC013 M05/M08 A2988 RMK AO2 SLP125 T10501078 11028 21050 53025
KSTP 191053Z AUTO 35012G19KT 10SM OVC013 M04/M07 A2984 RMK AO2 SLP109 T10441072
KSTP 191029Z AUTO 33013G20KT 10SM OVC014 M04/M06 A2985 RMK AO2 T10391061
KSTP 190953Z AUTO 36016G21KT 10SM OVC016 M03/M06 A2985 RMK AO2 SLP113 T10331061
KSTP 190853Z AUTO 36014G18KT 10SM BKN016 OVC027 M03/M06 A2981 RMK AO2 SLP098 T10281056 53009
KSTP 190753Z AUTO 35007KT 10SM BKN015 BKN120 M03/M06 A2980 RMK AO2 SLP096 T10281056
KSTP 190653Z AUTO 34004KT 10SM CLR M03/M06 A2978 RMK AO2 SLP090 T10331056
KSTP 190553Z AUTO 32008KT 10SM FEW013 M03/M05 A2978 RMK AO2 SLP089 T10281050 10033 21028 400561089 53028
KSTP 190453Z AUTO 33008KT 10SM CLR M01/M03 A2974 RMK AO2 SLP076 T10061028
KSTP 190353Z AUTO 00000KT 9SM CLR M01/M02 A2971 RMK AO2 SLP067 T10061022
KSTP 190253Z 10003KT 10SM CLR 02/M01 A2969 RMK AO2 SLP060 T00221011 51016
KSTP 190153Z 16005KT 10SM CLR 02/M01 A2968 RMK AO2 SLP057 T00221011
KSTP 190053Z 16006KT 10SM CLR 03/M01 A2967 RMK AO2 SLP053 T00281006
KSTP 182353Z 15007KT 10SM CLR 03/M01 A2964 RMK AO2 SLP044 T00331006 10056 20017 53002
KSTP 182253Z 17012KT 10SM CLR 04/M01 A2963 RMK AO2 SLP040 T00441011
KSTP 182153Z AUTO 15008KT 10SM CLR 05/M02 A2963 RMK AO2 SLP039 T00501017
KSTP 182053Z 17009G19KT 10SM CLR 04/M01 A2964 RMK AO2 SLP043 T00441011 56015
KSTP 181953Z 17016G27KT 10SM CLR 04/M01 A2965 RMK AO2 PK WND 17027/1906 SLP046 T00441011
KSTP 181853Z 16014KT 10SM SCT100 03/M02 A2966 RMK AO2 PK WND 15030/1802 SLP051 T00331017
KSTP 181753Z 15019G28KT 10SM BKN100 02/M03 A2968 RMK AO2 PK WND 15028/1752 PRESFR SLP058 T00171033 10017 21061 58064
KSTP 181653Z 15016G25KT 10SM OVC100 M01/M05 A2975 RMK AO2 SLP084 T10111050
KSTP 181553Z 14017G25KT 10SM OVC100 M03/M08 A2983 RMK AO2 PK WND 14030/1540 SLP109 T10281078
KSTP 181453Z 13016KT 10SM OVC110 M04/M11 A2988 RMK AO2 PRESFR SLP125 T10391111 58042
KSTP 181353Z 13010KT 10SM OVC110 M05/M13 A2995 RMK AO2 SLP150 T10501133